sensor_id;sensor_type;location;lat;lon;timestamp;P1;durP1;ratioP1;P2;durP2;ratioP2
18983;SDS011;9626;52.552;13.436;2023-11-18T00:01:30;6.57;;;5.23;;
18983;SDS011;9626;52.552;13.436;2023-11-18T00:03:58;6.43;;;4.90;;
18983;SDS011;9626;52.552;13.436;2023-11-18T00:06:24;7.30;;;4.90;;
18983;SDS011;9626;52.552;13.436;2023-11-18T00:08:50;6.33;;;4.57;;
18983;SDS011;9626;52.552;13.436;2023-11-18T00:11:16;5.20;;;4.70;;
18983;SDS011;9626;52.552;13.436;2023-11-18T00:13:42;7.37;;;4.63;;
18983;SDS011;9626;52.552;13.436;2023-11-18T00:16:08;5.07;;;4.20;;
18983;SDS011;9626;52.552;13.436;2023-11-18T00:18:38;6.87;;;4.80;;
18983;SDS011;9626;52.552;13.436;2023-11-18T00:21:05;7.37;;;4.23;;
18983;SDS011;9626;52.552;13.436;2023-11-18T00:23:33;4.77;;;4.10;;
18983;SDS011;9626;52.552;13.436;2023-11-18T00:26:00;7.37;;;5.07;;
18983;SDS011;9626;52.552;13.436;2023-11-18T00:28:26;7.53;;;4.60;;
18983;SDS011;9626;52.552;13.436;2023-11-18T00:30:52;5.10;;;4.40;;
18983;SDS011;9626;52.552;13.436;2023-11-18T00:33:19;6.00;;;3.87;;
18983;SDS011;9626;52.552;13.436;2023-11-18T00:36:03;5.87;;;4.77;;
18983;SDS011;9626;52.552;13.436;2023-11-18T00:38:29;6.63;;;4.53;;
18983;SDS011;9626;52.552;13.436;2023-11-18T00:40:56;6.20;;;4.87;;
18983;SDS011;9626;52.552;13.436;2023-11-18T00:43:22;5.83;;;4.40;;
18983;SDS011;9626;52.552;13.436;2023-11-18T00:45:48;5.33;;;4.70;;
18983;SDS011;9626;52.552;13.436;2023-11-18T00:48:14;5.40;;;3.97;;
18983;SDS011;9626;52.552;13.436;2023-11-18T00:50:40;5.33;;;4.33;;
18983;SDS011;9626;52.552;13.436;2023-11-18T00:53:06;6.90;;;4.93;;
18983;SDS011;9626;52.552;13.436;2023-11-18T00:55:32;5.37;;;4.03;;
18983;SDS011;9626;52.552;13.436;2023-11-18T00:57:58;4.93;;;4.43;;
18983;SDS011;9626;52.552;13.436;2023-11-18T01:00:24;5.93;;;4.63;;
18983;SDS011;9626;52.552;13.436;2023-11-18T01:02:53;5.27;;;4.47;;
18983;SDS011;9626;52.552;13.436;2023-11-18T01:05:20;6.23;;;4.60;;
18983;SDS011;9626;52.552;13.436;2023-11-18T01:07:46;6.17;;;4.07;;
18983;SDS011;9626;52.552;13.436;2023-11-18T01:10:12;5.37;;;4.73;;
18983;SDS011;9626;52.552;13.436;2023-11-18T01:12:41;7.83;;;4.37;;
18983;SDS011;9626;52.552;13.436;2023-11-18T01:15:10;5.83;;;4.43;;
18983;SDS011;9626;52.552;13.436;2023-11-18T01:17:38;5.83;;;4.67;;
18983;SDS011;9626;52.552;13.436;2023-11-18T01:20:04;7.30;;;4.40;;
18983;SDS011;9626;52.552;13.436;2023-11-18T01:22:36;6.67;;;3.97;;
18983;SDS011;9626;52.552;13.436;2023-11-18T01:25:04;4.67;;;4.13;;
18983;SDS011;9626;52.552;13.436;2023-11-18T01:27:31;6.03;;;4.90;;
18983;SDS011;9626;52.552;13.436;2023-11-18T01:29:59;5.17;;;4.53;;
18983;SDS011;9626;52.552;13.436;2023-11-18T01:32:26;6.23;;;4.60;;
18983;SDS011;9626;52.552;13.436;2023-11-18T01:34:52;7.27;;;4.77;;
18983;SDS011;9626;52.552;13.436;2023-11-18T01:37:19;5.00;;;4.13;;
18983;SDS011;9626;52.552;13.436;2023-11-18T01:39:47;4.87;;;4.27;;
18983;SDS011;9626;52.552;13.436;2023-11-18T01:42:13;4.57;;;3.97;;
18983;SDS011;9626;52.552;13.436;2023-11-18T01:44:39;7.70;;;4.20;;
18983;SDS011;9626;52.552;13.436;2023-11-18T01:47:06;5.53;;;4.30;;
18983;SDS011;9626;52.552;13.436;2023-11-18T01:49:36;4.77;;;4.23;;
18983;SDS011;9626;52.552;13.436;2023-11-18T01:52:06;10.07;;;7.30;;
18983;SDS011;9626;52.552;13.436;2023-11-18T01:54:34;5.33;;;4.70;;
18983;SDS011;9626;52.552;13.436;2023-11-18T01:57:03;5.57;;;4.47;;
18983;SDS011;9626;52.552;13.436;2023-11-18T01:59:34;6.47;;;5.27;;
18983;SDS011;9626;52.552;13.436;2023-11-18T02:02:00;6.10;;;4.57;;
18983;SDS011;9626;52.552;13.436;2023-11-18T02:04:27;5.57;;;4.33;;
18983;SDS011;9626;52.552;13.436;2023-11-18T02:06:53;5.97;;;4.47;;
18983;SDS011;9626;52.552;13.436;2023-11-18T02:09:20;5.70;;;4.17;;
18983;SDS011;9626;52.552;13.436;2023-11-18T02:11:54;5.97;;;4.13;;
18983;SDS011;9626;52.552;13.436;2023-11-18T02:14:31;5.30;;;4.43;;
18983;SDS011;9626;52.552;13.436;2023-11-18T02:17:03;6.50;;;5.00;;
18983;SDS011;9626;52.552;13.436;2023-11-18T02:19:31;5.73;;;4.47;;
18983;SDS011;9626;52.552;13.436;2023-11-18T02:21:58;8.07;;;4.40;;
18983;SDS011;9626;52.552;13.436;2023-11-18T02:24:30;4.90;;;4.20;;
18983;SDS011;9626;52.552;13.436;2023-11-18T02:27:02;5.20;;;4.37;;
18983;SDS011;9626;52.552;13.436;2023-11-18T02:29:35;5.53;;;4.70;;
18983;SDS011;9626;52.552;13.436;2023-11-18T02:32:25;5.60;;;4.23;;
18983;SDS011;9626;52.552;13.436;2023-11-18T02:35:06;6.03;;;4.27;;
18983;SDS011;9626;52.552;13.436;2023-11-18T02:37:40;6.53;;;4.40;;
18983;SDS011;9626;52.552;13.436;2023-11-18T02:40:11;5.63;;;4.50;;
18983;SDS011;9626;52.552;13.436;2023-11-18T02:42:42;5.17;;;4.23;;
18983;SDS011;9626;52.552;13.436;2023-11-18T02:45:11;6.83;;;5.17;;
18983;SDS011;9626;52.552;13.436;2023-11-18T02:47:45;7.17;;;4.80;;
18983;SDS011;9626;52.552;13.436;2023-11-18T02:50:11;8.17;;;4.30;;
18983;SDS011;9626;52.552;13.436;2023-11-18T02:52:42;5.93;;;4.50;;
18983;SDS011;9626;52.552;13.436;2023-11-18T02:55:08;6.87;;;4.90;;
18983;SDS011;9626;52.552;13.436;2023-11-18T02:57:37;6.60;;;4.63;;
18983;SDS011;9626;52.552;13.436;2023-11-18T03:00:04;6.07;;;4.63;;
18983;SDS011;9626;52.552;13.436;2023-11-18T03:02:31;5.40;;;4.63;;
18983;SDS011;9626;52.552;13.436;2023-11-18T03:04:57;7.53;;;5.17;;
18983;SDS011;9626;52.552;13.436;2023-11-18T03:07:23;6.70;;;4.53;;
18983;SDS011;9626;52.552;13.436;2023-11-18T03:09:49;5.97;;;4.90;;
18983;SDS011;9626;52.552;13.436;2023-11-18T03:12:16;7.13;;;4.93;;
18983;SDS011;9626;52.552;13.436;2023-11-18T03:14:45;6.53;;;4.87;;
18983;SDS011;9626;52.552;13.436;2023-11-18T03:17:13;8.30;;;4.90;;
18983;SDS011;9626;52.552;13.436;2023-11-18T03:19:39;8.53;;;4.63;;
18983;SDS011;9626;52.552;13.436;2023-11-18T03:22:08;5.17;;;4.37;;
18983;SDS011;9626;52.552;13.436;2023-11-18T03:24:34;5.73;;;4.43;;
18983;SDS011;9626;52.552;13.436;2023-11-18T03:27:00;7.97;;;5.03;;
18983;SDS011;9626;52.552;13.436;2023-11-18T03:29:27;5.20;;;4.43;;
18983;SDS011;9626;52.552;13.436;2023-11-18T03:31:53;5.63;;;4.03;;
18983;SDS011;9626;52.552;13.436;2023-11-18T03:34:19;6.17;;;4.30;;
18983;SDS011;9626;52.552;13.436;2023-11-18T03:36:46;7.87;;;4.67;;
18983;SDS011;9626;52.552;13.436;2023-11-18T03:39:13;5.73;;;4.40;;
18983;SDS011;9626;52.552;13.436;2023-11-18T03:41:40;9.13;;;4.90;;
18983;SDS011;9626;52.552;13.436;2023-11-18T03:44:11;5.17;;;3.67;;
18983;SDS011;9626;52.552;13.436;2023-11-18T03:46:37;5.93;;;4.03;;
18983;SDS011;9626;52.552;13.436;2023-11-18T03:49:03;5.13;;;4.03;;
18983;SDS011;9626;52.552;13.436;2023-11-18T03:51:29;5.60;;;4.77;;
18983;SDS011;9626;52.552;13.436;2023-11-18T03:53:55;6.10;;;4.07;;
18983;SDS011;9626;52.552;13.436;2023-11-18T03:56:22;4.80;;;4.03;;
18983;SDS011;9626;52.552;13.436;2023-11-18T03:58:48;4.73;;;3.90;;
18983;SDS011;9626;52.552;13.436;2023-11-18T04:01:23;5.57;;;3.93;;
18983;SDS011;9626;52.552;13.436;2023-11-18T04:03:52;5.37;;;4.17;;
18983;SDS011;9626;52.552;13.436;2023-11-18T04:06:19;8.97;;;4.33;;
18983;SDS011;9626;52.552;13.436;2023-11-18T04:08:47;4.73;;;3.43;;
18983;SDS011;9626;52.552;13.436;2023-11-18T04:11:16;6.27;;;3.63;;
18983;SDS011;9626;52.552;13.436;2023-11-18T04:13:43;5.73;;;4.00;;
18983;SDS011;9626;52.552;13.436;2023-11-18T04:16:10;5.80;;;3.67;;
18983;SDS011;9626;52.552;13.436;2023-11-18T04:18:41;4.23;;;3.17;;
18983;SDS011;9626;52.552;13.436;2023-11-18T04:21:08;3.90;;;3.07;;
18983;SDS011;9626;52.552;13.436;2023-11-18T04:23:38;6.07;;;4.10;;
18983;SDS011;9626;52.552;13.436;2023-11-18T04:26:05;4.20;;;3.50;;
18983;SDS011;9626;52.552;13.436;2023-11-18T04:28:33;4.53;;;3.70;;
18983;SDS011;9626;52.552;13.436;2023-11-18T04:31:02;5.77;;;3.97;;
18983;SDS011;9626;52.552;13.436;2023-11-18T04:33:28;5.03;;;3.90;;
18983;SDS011;9626;52.552;13.436;2023-11-18T04:35:55;5.40;;;4.13;;
18983;SDS011;9626;52.552;13.436;2023-11-18T04:38:23;6.47;;;4.67;;
18983;SDS011;9626;52.552;13.436;2023-11-18T04:40:49;4.63;;;3.80;;
18983;SDS011;9626;52.552;13.436;2023-11-18T04:43:15;5.40;;;4.17;;
18983;SDS011;9626;52.552;13.436;2023-11-18T04:45:44;5.10;;;4.30;;
18983;SDS011;9626;52.552;13.436;2023-11-18T04:48:10;6.67;;;4.27;;
18983;SDS011;9626;52.552;13.436;2023-11-18T04:50:39;6.30;;;4.57;;
18983;SDS011;9626;52.552;13.436;2023-11-18T04:53:08;7.47;;;4.90;;
18983;SDS011;9626;52.552;13.436;2023-11-18T04:55:39;5.97;;;4.73;;
18983;SDS011;9626;52.552;13.436;2023-11-18T04:58:05;6.03;;;4.23;;
18983;SDS011;9626;52.552;13.436;2023-11-18T05:00:35;6.63;;;4.30;;
18983;SDS011;9626;52.552;13.436;2023-11-18T05:03:22;7.30;;;4.43;;
18983;SDS011;9626;52.552;13.436;2023-11-18T05:05:49;5.77;;;4.47;;
18983;SDS011;9626;52.552;13.436;2023-11-18T05:08:18;7.60;;;4.50;;
18983;SDS011;9626;52.552;13.436;2023-11-18T05:10:49;5.30;;;4.37;;
18983;SDS011;9626;52.552;13.436;2023-11-18T05:13:16;7.20;;;4.43;;
18983;SDS011;9626;52.552;13.436;2023-11-18T05:15:44;5.20;;;4.33;;
18983;SDS011;9626;52.552;13.436;2023-11-18T05:18:14;6.93;;;4.10;;
18983;SDS011;9626;52.552;13.436;2023-11-18T05:20:41;7.20;;;4.83;;
18983;SDS011;9626;52.552;13.436;2023-11-18T05:23:07;5.97;;;4.60;;
18983;SDS011;9626;52.552;13.436;2023-11-18T05:25:39;6.63;;;4.90;;
18983;SDS011;9626;52.552;13.436;2023-11-18T05:28:05;7.03;;;5.17;;
18983;SDS011;9626;52.552;13.436;2023-11-18T05:30:34;9.00;;;5.43;;
18983;SDS011;9626;52.552;13.436;2023-11-18T05:33:02;5.90;;;4.93;;
18983;SDS011;9626;52.552;13.436;2023-11-18T05:35:32;6.77;;;5.07;;
18983;SDS011;9626;52.552;13.436;2023-11-18T05:37:59;7.67;;;4.97;;
18983;SDS011;9626;52.552;13.436;2023-11-18T05:40:27;8.33;;;5.33;;
18983;SDS011;9626;52.552;13.436;2023-11-18T05:42:54;9.40;;;5.20;;
18983;SDS011;9626;52.552;13.436;2023-11-18T05:45:21;7.90;;;5.20;;
18983;SDS011;9626;52.552;13.436;2023-11-18T05:47:57;7.97;;;5.53;;
18983;SDS011;9626;52.552;13.436;2023-11-18T05:50:23;7.63;;;5.20;;
18983;SDS011;9626;52.552;13.436;2023-11-18T05:52:53;9.73;;;5.77;;
18983;SDS011;9626;52.552;13.436;2023-11-18T05:55:19;7.67;;;5.33;;
18983;SDS011;9626;52.552;13.436;2023-11-18T05:57:46;8.47;;;5.53;;
18983;SDS011;9626;52.552;13.436;2023-11-18T06:00:13;6.60;;;5.23;;
18983;SDS011;9626;52.552;13.436;2023-11-18T06:02:45;9.63;;;5.40;;
18983;SDS011;9626;52.552;13.436;2023-11-18T06:05:12;7.80;;;5.10;;
18983;SDS011;9626;52.552;13.436;2023-11-18T06:07:38;6.63;;;4.93;;
18983;SDS011;9626;52.552;13.436;2023-11-18T06:10:09;7.33;;;5.47;;
18983;SDS011;9626;52.552;13.436;2023-11-18T06:12:35;8.50;;;5.47;;
18983;SDS011;9626;52.552;13.436;2023-11-18T06:15:02;8.00;;;5.80;;
18983;SDS011;9626;52.552;13.436;2023-11-18T06:17:29;7.50;;;6.17;;
18983;SDS011;9626;52.552;13.436;2023-11-18T06:19:55;11.03;;;6.60;;
18983;SDS011;9626;52.552;13.436;2023-11-18T06:22:21;6.97;;;5.20;;
18983;SDS011;9626;52.552;13.436;2023-11-18T06:24:47;7.97;;;5.30;;
18983;SDS011;9626;52.552;13.436;2023-11-18T06:27:14;8.93;;;6.70;;
18983;SDS011;9626;52.552;13.436;2023-11-18T06:29:41;8.03;;;6.30;;
18983;SDS011;9626;52.552;13.436;2023-11-18T06:32:07;7.20;;;5.40;;
18983;SDS011;9626;52.552;13.436;2023-11-18T06:34:33;7.77;;;5.83;;
18983;SDS011;9626;52.552;13.436;2023-11-18T06:36:59;8.40;;;6.50;;
18983;SDS011;9626;52.552;13.436;2023-11-18T06:39:25;8.57;;;6.30;;
18983;SDS011;9626;52.552;13.436;2023-11-18T06:41:56;10.23;;;6.63;;
18983;SDS011;9626;52.552;13.436;2023-11-18T06:44:24;10.33;;;6.37;;
18983;SDS011;9626;52.552;13.436;2023-11-18T06:46:50;8.07;;;6.03;;
18983;SDS011;9626;52.552;13.436;2023-11-18T06:49:22;8.40;;;6.10;;
18983;SDS011;9626;52.552;13.436;2023-11-18T06:51:51;9.40;;;6.83;;
18983;SDS011;9626;52.552;13.436;2023-11-18T06:54:17;7.37;;;6.00;;
18983;SDS011;9626;52.552;13.436;2023-11-18T06:56:43;8.27;;;6.63;;
18983;SDS011;9626;52.552;13.436;2023-11-18T06:59:09;12.30;;;6.93;;
18983;SDS011;9626;52.552;13.436;2023-11-18T07:01:38;8.90;;;6.63;;
18983;SDS011;9626;52.552;13.436;2023-11-18T07:04:06;10.20;;;6.47;;
18983;SDS011;9626;52.552;13.436;2023-11-18T07:06:36;8.90;;;7.10;;
18983;SDS011;9626;52.552;13.436;2023-11-18T07:09:06;9.30;;;6.50;;
18983;SDS011;9626;52.552;13.436;2023-11-18T07:11:41;7.43;;;5.67;;
18983;SDS011;9626;52.552;13.436;2023-11-18T07:14:08;9.37;;;5.83;;
18983;SDS011;9626;52.552;13.436;2023-11-18T07:16:39;10.63;;;6.10;;
18983;SDS011;9626;52.552;13.436;2023-11-18T07:19:06;8.60;;;6.30;;
18983;SDS011;9626;52.552;13.436;2023-11-18T07:21:33;9.40;;;6.37;;
18983;SDS011;9626;52.552;13.436;2023-11-18T07:23:59;8.07;;;6.17;;
18983;SDS011;9626;52.552;13.436;2023-11-18T07:26:27;10.33;;;6.50;;
18983;SDS011;9626;52.552;13.436;2023-11-18T07:28:54;10.63;;;6.70;;
18983;SDS011;9626;52.552;13.436;2023-11-18T07:31:35;9.63;;;7.00;;
18983;SDS011;9626;52.552;13.436;2023-11-18T07:34:04;9.40;;;6.47;;
18983;SDS011;9626;52.552;13.436;2023-11-18T07:36:43;8.37;;;6.90;;
18983;SDS011;9626;52.552;13.436;2023-11-18T07:39:11;10.07;;;6.60;;
18983;SDS011;9626;52.552;13.436;2023-11-18T07:41:41;9.67;;;7.23;;
18983;SDS011;9626;52.552;13.436;2023-11-18T07:44:08;10.50;;;7.00;;
18983;SDS011;9626;52.552;13.436;2023-11-18T07:46:38;11.93;;;7.53;;
18983;SDS011;9626;52.552;13.436;2023-11-18T07:49:08;9.47;;;6.90;;
18983;SDS011;9626;52.552;13.436;2023-11-18T07:51:34;9.33;;;7.00;;
18983;SDS011;9626;52.552;13.436;2023-11-18T07:54:20;11.23;;;7.17;;
18983;SDS011;9626;52.552;13.436;2023-11-18T07:56:46;8.80;;;6.27;;
18983;SDS011;9626;52.552;13.436;2023-11-18T07:59:13;12.73;;;7.47;;
18983;SDS011;9626;52.552;13.436;2023-11-18T08:01:41;10.97;;;7.33;;
18983;SDS011;9626;52.552;13.436;2023-11-18T08:04:12;9.70;;;6.80;;
18983;SDS011;9626;52.552;13.436;2023-11-18T08:06:42;13.10;;;7.50;;
18983;SDS011;9626;52.552;13.436;2023-11-18T08:09:12;10.80;;;7.07;;
18983;SDS011;9626;52.552;13.436;2023-11-18T08:11:40;12.50;;;7.80;;
18983;SDS011;9626;52.552;13.436;2023-11-18T08:14:07;9.63;;;6.87;;
18983;SDS011;9626;52.552;13.436;2023-11-18T08:16:36;9.27;;;5.90;;
18983;SDS011;9626;52.552;13.436;2023-11-18T08:19:02;9.73;;;6.33;;
18983;SDS011;9626;52.552;13.436;2023-11-18T08:21:28;8.50;;;6.37;;
18983;SDS011;9626;52.552;13.436;2023-11-18T08:23:54;7.97;;;6.03;;
18983;SDS011;9626;52.552;13.436;2023-11-18T08:26:21;12.17;;;6.60;;
18983;SDS011;9626;52.552;13.436;2023-11-18T08:28:47;9.30;;;6.63;;
18983;SDS011;9626;52.552;13.436;2023-11-18T08:31:13;9.27;;;7.27;;
18983;SDS011;9626;52.552;13.436;2023-11-18T08:33:43;10.03;;;6.87;;
18983;SDS011;9626;52.552;13.436;2023-11-18T08:36:10;11.03;;;6.10;;
18983;SDS011;9626;52.552;13.436;2023-11-18T08:38:38;10.47;;;7.00;;
18983;SDS011;9626;52.552;13.436;2023-11-18T08:41:04;7.17;;;5.50;;
18983;SDS011;9626;52.552;13.436;2023-11-18T08:43:34;11.10;;;6.30;;
18983;SDS011;9626;52.552;13.436;2023-11-18T08:46:01;7.20;;;5.23;;
18983;SDS011;9626;52.552;13.436;2023-11-18T08:48:28;8.93;;;5.57;;
18983;SDS011;9626;52.552;13.436;2023-11-18T08:50:55;9.10;;;5.90;;
18983;SDS011;9626;52.552;13.436;2023-11-18T08:53:21;10.40;;;5.20;;
18983;SDS011;9626;52.552;13.436;2023-11-18T08:55:51;7.23;;;5.60;;
18983;SDS011;9626;52.552;13.436;2023-11-18T08:58:19;6.67;;;5.37;;
18983;SDS011;9626;52.552;13.436;2023-11-18T09:00:51;8.50;;;5.17;;
18983;SDS011;9626;52.552;13.436;2023-11-18T09:03:25;7.03;;;5.43;;
18983;SDS011;9626;52.552;13.436;2023-11-18T09:06:05;8.73;;;5.33;;
18983;SDS011;9626;52.552;13.436;2023-11-18T09:08:43;5.83;;;4.50;;
18983;SDS011;9626;52.552;13.436;2023-11-18T09:11:13;5.97;;;4.73;;
18983;SDS011;9626;52.552;13.436;2023-11-18T09:13:44;8.53;;;4.77;;
18983;SDS011;9626;52.552;13.436;2023-11-18T09:16:15;8.47;;;4.83;;
18983;SDS011;9626;52.552;13.436;2023-11-18T09:18:42;7.20;;;4.60;;
18983;SDS011;9626;52.552;13.436;2023-11-18T09:21:12;7.63;;;5.23;;
18983;SDS011;9626;52.552;13.436;2023-11-18T09:23:45;8.73;;;5.03;;
18983;SDS011;9626;52.552;13.436;2023-11-18T09:26:13;8.13;;;5.30;;
18983;SDS011;9626;52.552;13.436;2023-11-18T09:28:40;8.57;;;5.60;;
18983;SDS011;9626;52.552;13.436;2023-11-18T09:31:08;7.07;;;5.37;;
18983;SDS011;9626;52.552;13.436;2023-11-18T09:33:38;8.57;;;5.97;;
18983;SDS011;9626;52.552;13.436;2023-11-18T09:36:10;8.30;;;6.07;;
18983;SDS011;9626;52.552;13.436;2023-11-18T09:38:39;8.17;;;5.57;;
18983;SDS011;9626;52.552;13.436;2023-11-18T09:41:10;9.07;;;5.80;;
18983;SDS011;9626;52.552;13.436;2023-11-18T09:43:37;7.73;;;5.47;;
18983;SDS011;9626;52.552;13.436;2023-11-18T09:46:25;6.33;;;4.70;;
18983;SDS011;9626;52.552;13.436;2023-11-18T09:48:59;6.53;;;5.10;;
18983;SDS011;9626;52.552;13.436;2023-11-18T09:51:43;8.23;;;5.70;;
18983;SDS011;9626;52.552;13.436;2023-11-18T09:54:18;6.27;;;4.87;;
18983;SDS011;9626;52.552;13.436;2023-11-18T09:57:04;5.87;;;4.80;;
18983;SDS011;9626;52.552;13.436;2023-11-18T09:59:49;6.70;;;4.90;;
18983;SDS011;9626;52.552;13.436;2023-11-18T10:02:39;5.63;;;4.70;;
18983;SDS011;9626;52.552;13.436;2023-11-18T10:05:06;7.67;;;5.10;;
18983;SDS011;9626;52.552;13.436;2023-11-18T10:07:41;8.10;;;5.20;;
18983;SDS011;9626;52.552;13.436;2023-11-18T10:10:08;5.83;;;5.00;;
18983;SDS011;9626;52.552;13.436;2023-11-18T10:12:41;6.03;;;4.53;;
18983;SDS011;9626;52.552;13.436;2023-11-18T10:15:13;6.03;;;4.47;;
18983;SDS011;9626;52.552;13.436;2023-11-18T10:17:44;6.07;;;4.80;;
18983;SDS011;9626;52.552;13.436;2023-11-18T10:23:07;4.53;;;3.83;;
18983;SDS011;9626;52.552;13.436;2023-11-18T10:25:45;4.33;;;3.80;;
18983;SDS011;9626;52.552;13.436;2023-11-18T10:28:26;4.83;;;4.10;;
18983;SDS011;9626;52.552;13.436;2023-11-18T10:30:57;4.47;;;3.67;;
18983;SDS011;9626;52.552;13.436;2023-11-18T10:33:26;6.47;;;3.87;;
18983;SDS011;9626;52.552;13.436;2023-11-18T10:35:56;5.17;;;3.50;;
18983;SDS011;9626;52.552;13.436;2023-11-18T10:38:23;5.73;;;3.60;;
18983;SDS011;9626;52.552;13.436;2023-11-18T10:40:53;6.20;;;4.13;;
18983;SDS011;9626;52.552;13.436;2023-11-18T10:43:23;7.33;;;4.60;;
18983;SDS011;9626;52.552;13.436;2023-11-18T10:46:03;6.00;;;4.77;;
18983;SDS011;9626;52.552;13.436;2023-11-18T10:48:30;5.63;;;4.10;;
18983;SDS011;9626;52.552;13.436;2023-11-18T10:50:57;6.40;;;4.20;;
18983;SDS011;9626;52.552;13.436;2023-11-18T10:53:25;7.40;;;5.07;;
18983;SDS011;9626;52.552;13.436;2023-11-18T10:55:53;6.00;;;4.63;;
18983;SDS011;9626;52.552;13.436;2023-11-18T10:58:20;6.67;;;5.27;;
18983;SDS011;9626;52.552;13.436;2023-11-18T11:00:49;7.93;;;5.50;;
18983;SDS011;9626;52.552;13.436;2023-11-18T11:03:21;6.97;;;5.07;;
18983;SDS011;9626;52.552;13.436;2023-11-18T11:05:51;5.83;;;4.80;;
18983;SDS011;9626;52.552;13.436;2023-11-18T11:08:21;6.13;;;4.70;;
18983;SDS011;9626;52.552;13.436;2023-11-18T11:10:49;8.10;;;4.57;;
18983;SDS011;9626;52.552;13.436;2023-11-18T11:13:18;6.17;;;4.50;;
18983;SDS011;9626;52.552;13.436;2023-11-18T11:15:45;4.33;;;3.83;;
18983;SDS011;9626;52.552;13.436;2023-11-18T11:18:19;6.40;;;4.23;;
18983;SDS011;9626;52.552;13.436;2023-11-18T11:21:13;7.13;;;4.77;;
18983;SDS011;9626;52.552;13.436;2023-11-18T11:23:44;5.70;;;4.40;;
18983;SDS011;9626;52.552;13.436;2023-11-18T11:26:34;7.60;;;4.47;;
18983;SDS011;9626;52.552;13.436;2023-11-18T11:31:44;7.03;;;4.70;;
18983;SDS011;9626;52.552;13.436;2023-11-18T11:34:19;6.73;;;4.40;;
18983;SDS011;9626;52.552;13.436;2023-11-18T11:36:46;4.37;;;3.50;;
18983;SDS011;9626;52.552;13.436;2023-11-18T11:39:17;6.03;;;4.40;;
18983;SDS011;9626;52.552;13.436;2023-11-18T11:41:50;7.90;;;4.30;;
18983;SDS011;9626;52.552;13.436;2023-11-18T11:44:17;7.03;;;4.23;;
18983;SDS011;9626;52.552;13.436;2023-11-18T11:46:46;5.57;;;4.30;;
18983;SDS011;9626;52.552;13.436;2023-11-18T11:49:19;5.70;;;4.30;;
18983;SDS011;9626;52.552;13.436;2023-11-18T11:54:55;5.87;;;4.10;;
18983;SDS011;9626;52.552;13.436;2023-11-18T11:57:28;6.40;;;5.03;;
18983;SDS011;9626;52.552;13.436;2023-11-18T11:59:55;6.93;;;5.00;;
18983;SDS011;9626;52.552;13.436;2023-11-18T12:02:22;6.37;;;4.77;;
18983;SDS011;9626;52.552;13.436;2023-11-18T12:04:53;7.50;;;5.53;;
18983;SDS011;9626;52.552;13.436;2023-11-18T12:07:27;12.30;;;6.70;;
18983;SDS011;9626;52.552;13.436;2023-11-18T12:09:57;8.87;;;6.77;;
18983;SDS011;9626;52.552;13.436;2023-11-18T12:12:31;11.90;;;7.53;;
18983;SDS011;9626;52.552;13.436;2023-11-18T12:14:59;27.20;;;20.87;;
18983;SDS011;9626;52.552;13.436;2023-11-18T12:18:23;32.97;;;19.90;;
18983;SDS011;9626;52.552;13.436;2023-11-18T12:20:39;41.87;;;28.10;;
18983;SDS011;9626;52.552;13.436;2023-11-18T12:23:14;14.13;;;10.50;;
18983;SDS011;9626;52.552;13.436;2023-11-18T12:25:41;13.33;;;10.77;;
18983;SDS011;9626;52.552;13.436;2023-11-18T12:28:11;28.77;;;19.17;;
18983;SDS011;9626;52.552;13.436;2023-11-18T12:30:41;26.53;;;18.90;;
18983;SDS011;9626;52.552;13.436;2023-11-18T12:33:18;10.67;;;7.47;;
18983;SDS011;9626;52.552;13.436;2023-11-18T12:42:03;6.97;;;5.87;;
18983;SDS011;9626;52.552;13.436;2023-11-18T12:44:46;7.47;;;6.17;;
18983;SDS011;9626;52.552;13.436;2023-11-18T12:47:18;9.13;;;6.03;;
18983;SDS011;9626;52.552;13.436;2023-11-18T12:49:56;9.37;;;6.20;;
18983;SDS011;9626;52.552;13.436;2023-11-18T12:52:26;9.07;;;6.13;;
18983;SDS011;9626;52.552;13.436;2023-11-18T12:54:53;7.80;;;5.77;;
18983;SDS011;9626;52.552;13.436;2023-11-18T12:57:27;9.23;;;5.47;;
18983;SDS011;9626;52.552;13.436;2023-11-18T13:00:04;8.47;;;5.43;;
18983;SDS011;9626;52.552;13.436;2023-11-18T13:02:36;7.07;;;5.00;;
18983;SDS011;9626;52.552;13.436;2023-11-18T13:05:08;9.77;;;5.33;;
18983;SDS011;9626;52.552;13.436;2023-11-18T13:07:39;7.80;;;5.57;;
18983;SDS011;9626;52.552;13.436;2023-11-18T13:10:06;7.37;;;5.07;;
18983;SDS011;9626;52.552;13.436;2023-11-18T13:12:33;6.30;;;4.80;;
18983;SDS011;9626;52.552;13.436;2023-11-18T13:15:00;4.23;;;3.60;;
18983;SDS011;9626;52.552;13.436;2023-11-18T13:17:26;5.77;;;4.30;;
18983;SDS011;9626;52.552;13.436;2023-11-18T13:19:53;6.03;;;4.13;;
18983;SDS011;9626;52.552;13.436;2023-11-18T13:22:23;6.63;;;4.47;;
18983;SDS011;9626;52.552;13.436;2023-11-18T13:24:50;6.57;;;4.93;;
18983;SDS011;9626;52.552;13.436;2023-11-18T13:27:16;4.50;;;3.63;;
18983;SDS011;9626;52.552;13.436;2023-11-18T13:29:46;5.67;;;4.40;;
18983;SDS011;9626;52.552;13.436;2023-11-18T13:32:17;5.80;;;4.27;;
18983;SDS011;9626;52.552;13.436;2023-11-18T13:34:46;8.17;;;5.57;;
18983;SDS011;9626;52.552;13.436;2023-11-18T13:37:12;10.53;;;5.93;;
18983;SDS011;9626;52.552;13.436;2023-11-18T13:39:42;8.90;;;5.70;;
18983;SDS011;9626;52.552;13.436;2023-11-18T13:42:22;12.20;;;7.63;;
18983;SDS011;9626;52.552;13.436;2023-11-18T13:44:49;11.27;;;7.40;;
18983;SDS011;9626;52.552;13.436;2023-11-18T13:47:16;8.70;;;6.20;;
18983;SDS011;9626;52.552;13.436;2023-11-18T13:49:43;7.07;;;5.40;;
18983;SDS011;9626;52.552;13.436;2023-11-18T13:52:13;9.07;;;6.70;;
18983;SDS011;9626;52.552;13.436;2023-11-18T13:54:43;8.37;;;5.87;;
18983;SDS011;9626;52.552;13.436;2023-11-18T13:57:13;6.70;;;4.53;;
18983;SDS011;9626;52.552;13.436;2023-11-18T13:59:39;7.07;;;4.77;;
18983;SDS011;9626;52.552;13.436;2023-11-18T14:02:09;7.40;;;5.10;;
18983;SDS011;9626;52.552;13.436;2023-11-18T14:04:38;6.07;;;4.47;;
18983;SDS011;9626;52.552;13.436;2023-11-18T14:07:05;6.93;;;5.17;;
18983;SDS011;9626;52.552;13.436;2023-11-18T14:09:32;7.60;;;4.67;;
18983;SDS011;9626;52.552;13.436;2023-11-18T14:12:08;5.33;;;3.93;;
18983;SDS011;9626;52.552;13.436;2023-11-18T14:14:34;5.73;;;3.87;;
18983;SDS011;9626;52.552;13.436;2023-11-18T14:17:00;7.20;;;4.53;;
18983;SDS011;9626;52.552;13.436;2023-11-18T14:19:27;6.63;;;4.40;;
18983;SDS011;9626;52.552;13.436;2023-11-18T14:21:54;5.83;;;4.40;;
18983;SDS011;9626;52.552;13.436;2023-11-18T14:24:20;5.67;;;4.30;;
18983;SDS011;9626;52.552;13.436;2023-11-18T14:26:49;5.40;;;4.37;;
18983;SDS011;9626;52.552;13.436;2023-11-18T14:29:16;10.10;;;6.17;;
18983;SDS011;9626;52.552;13.436;2023-11-18T14:31:42;10.33;;;6.23;;
18983;SDS011;9626;52.552;13.436;2023-11-18T14:34:08;10.77;;;6.23;;
18983;SDS011;9626;52.552;13.436;2023-11-18T14:36:38;8.17;;;5.63;;
18983;SDS011;9626;52.552;13.436;2023-11-18T14:39:04;12.23;;;6.07;;
18983;SDS011;9626;52.552;13.436;2023-11-18T14:41:41;9.60;;;6.23;;
18983;SDS011;9626;52.552;13.436;2023-11-18T14:44:09;9.30;;;5.97;;
18983;SDS011;9626;52.552;13.436;2023-11-18T14:46:35;8.03;;;5.63;;
18983;SDS011;9626;52.552;13.436;2023-11-18T14:49:04;9.17;;;6.37;;
18983;SDS011;9626;52.552;13.436;2023-11-18T14:51:33;9.83;;;6.63;;
18983;SDS011;9626;52.552;13.436;2023-11-18T14:53:59;9.87;;;6.07;;
18983;SDS011;9626;52.552;13.436;2023-11-18T14:56:25;10.67;;;6.90;;
18983;SDS011;9626;52.552;13.436;2023-11-18T14:58:51;12.30;;;7.30;;
18983;SDS011;9626;52.552;13.436;2023-11-18T15:01:17;10.27;;;6.53;;
18983;SDS011;9626;52.552;13.436;2023-11-18T15:03:44;11.23;;;6.87;;
18983;SDS011;9626;52.552;13.436;2023-11-18T15:06:13;11.93;;;6.77;;
18983;SDS011;9626;52.552;13.436;2023-11-18T15:08:41;10.37;;;7.13;;
18983;SDS011;9626;52.552;13.436;2023-11-18T15:11:08;10.00;;;6.80;;
18983;SDS011;9626;52.552;13.436;2023-11-18T15:13:35;10.00;;;6.90;;